• Join FlightAware (Why Join?)
  • Login
  • US Flag 
11:49PM EDT


 

Airport Tracker/Info


-or-


 

Live Flight TrackerFlight Track Log ✈ SWA2206 ✈ 01-May-2012 ✈ KTUL - KDAL

Flight Track Log - Related Links

Times and Time Zones

All times are in EDT time to prevent confusion due to time zone crossing. See the SWA2206 flight status page for this flight to view local times or setup timezone preferences in your user account.

Time Position Orientation Groundspeed Altitude Reporting Facility
EDT Latitude Longitude Course Direction KTS MPH feet Rate Location/Type
10:57PM 36.1758 -95.8878 176° South 134 154 1,600  Level Kansas City Center
10:59PM 36.0883 -95.8811 177° South 219 252 5,400 2,100 Climbing Kansas City Center
11:02PM 35.9033 -95.8686 176° South 277 319 10,500 2,160 Climbing Fort Worth Center
11:03PM 35.8075 -95.8603 176° South 317 365 13,100 2,940 Climbing Fort Worth Center
11:04PM 35.7053 -95.8519 177° South 352 405 16,400 2,760 Climbing Fort Worth Center
11:05PM 35.6111 -95.8458 176° South 369 425 18,700 2,700 Climbing Fort Worth Center
11:06PM 35.5047 -95.8378 176° South 383 441 21,900 1,620 Climbing Fort Worth Center
11:07PM 35.3858 -95.8272 177° South 403 464 22,000  Climbing Fort Worth Center
11:08PM 35.2669 -95.8194 176° South 425 489 22,000  Level Fort Worth Center
11:09PM 35.1458 -95.8089 176° South 437 503 22,000  Level Fort Worth Center
11:10PM 35.0225 -95.7986 180° South 442 509 22,000  Level Fort Worth Center
11:11PM 34.8869 -95.7986 194° South 442 509 22,000  Level Fort Worth Center
11:12PM 34.7789 -95.8308 197° South 442 509 22,000  Level Fort Worth Center
11:13PM 34.6606 -95.8736 195° South 436 502 22,000  Level Fort Worth Center
11:14PM 34.5483 -95.9108 196° South 430 495 22,000  Level Fort Worth Center
11:15PM 34.4339 -95.9506 195° South 430 495 22,000  Level Fort Worth Center
11:16PM 34.3197 -95.9878 195° South 430 495 22,000  Level Fort Worth Center
11:17PM 34.2033 -96.0247 197° South 430 495 22,000  Level Fort Worth Center
11:18PM 34.0972 -96.0642 195° South 430 495 22,000  Level Fort Worth Center
11:19PM 33.9767 -96.1036 196° South 422 486 22,000  Level Fort Worth Center
11:20PM 33.8603 -96.1428 194° South 433 498 22,000 -1,080 Level Fort Worth Center
11:21PM 33.7292 -96.1822 201° Southwest 440 506 19,900 -3,000 Descending Fort Worth Center
11:22PM 33.6128 -96.2347 190° South 362 417 15,800 -3,600 Descending FAA TRACON SMA TRACON (SMA)
11:22PM 33.5436 -96.2494 197° South 398 458 13,600 -3,360 Descending FAA TRACON SMA TRACON (SMA)
11:23PM 33.4750 -96.2739 212° Southwest 377 434 11,400 -2,640 Descending FAA TRACON SMA TRACON (SMA)
11:24PM 33.4183 -96.3169 225° Southwest 347 399 10,100 -1,380 Descending FAA TRACON SMA TRACON (SMA)
11:24PM 33.3803 -96.3619 224° Southwest 307 353 9,600 -1,020 Descending FAA TRACON SMA TRACON (SMA)
11:25PM 33.3406 -96.4083 225° Southwest 284 327 8,800 -1,140 Descending FAA TRACON SMA TRACON (SMA)
11:26PM 33.3028 -96.4528 223° Southwest 274 315 8,100 -1,140 Descending FAA TRACON SMA TRACON (SMA)
11:26PM 33.2692 -96.4906 225° Southwest 268 308 7,300 -1,200 Descending FAA TRACON SMA TRACON (SMA)
11:27PM 33.2336 -96.5336 223° Southwest 261 300 6,500 -1,380 Descending FAA TRACON SMA TRACON (SMA)
11:28PM 33.1983 -96.5733 225° Southwest 249 287 5,500 -1,440 Descending FAA TRACON SMA TRACON (SMA)
11:28PM 33.1683 -96.6092 225° Southwest 246 283 4,600 -1,440 Descending FAA TRACON SMA TRACON (SMA)
11:29PM 33.1347 -96.6486 224° Southwest 245 282 3,600 -1,200 Descending FAA TRACON SMA TRACON (SMA)
11:30PM 33.1017 -96.6872 224° Southwest 239 275 3,000 -480 Descending FAA TRACON SMA TRACON (SMA)
11:30PM 33.0731 -96.7203 226° Southwest 236 272 3,000  Level FAA TRACON SMA TRACON (SMA)
11:31PM 33.0386 -96.7622 224° Southwest 258 297 3,000  Level FAA TRACON SMA TRACON (SMA)
11:32PM 33.0042 -96.8014 224° Southwest 243 280 3,000 -120 Level FAA TRACON SMA TRACON (SMA)
11:32PM 32.9761 -96.8342 223° Southwest 231 266 2,900  Descending FAA TRACON SMA TRACON (SMA)
11:33PM 32.9478 -96.8658 224° Southwest 196 226 3,000 -300 Climbing FAA TRACON SMA TRACON (SMA)
11:34PM 32.9289 -96.8878 203° Southwest 153 176 2,500 -960 Descending FAA TRACON SMA TRACON (SMA)
11:34PM 32.9064 -96.8989 167° South 127 146 1,800 -840 Descending FAA TRACON SMA TRACON (SMA)
11:35PM 32.8847 -96.8931 147° Southeast 119 137 1,400 -600 Descending FAA TRACON SMA TRACON (SMA)
11:36PM 32.8678 -96.8797 137° Southeast 121 139 1,000 -600 Descending FAA TRACON SMA TRACON (SMA)
11:36PM 32.8533 -96.8639 137° Southeast 133 153 600 -600 Descending FAA TRACON SMA TRACON (SMA)